Time,TemperatureF,DewpointF,PressureIn,WindDirection,WindDirectionDegrees,WindSpeedMPH,WindSpeedGustMPH,Humidity,HourlyPrecipIn,Conditions,Clouds,dailyrainin,SoftwareType,DateUTC
2013-02-03 00:02:00,43.0,21.5,30.24,NW,315,3.1,4.3,42,0.00,,---,0.00,VWS V14.01,2013-02-03 06:02:00,
2013-02-03 00:08:00,42.8,21.3,30.24,NW,315,3.8,3.8,42,0.00,,---,0.00,VWS V14.01,2013-02-03 06:08:00,
2013-02-03 00:14:00,42.8,21.3,30.27,WNW,292,5.6,6.5,42,0.00,,---,0.00,VWS V14.01,2013-02-03 06:14:00,
2013-02-03 00:19:00,42.8,21.3,30.27,NW,315,5.4,5.4,42,0.00,,---,0.00,VWS V14.01,2013-02-03 06:19:00,
2013-02-03 00:25:00,42.4,21.0,30.27,North,0,4.9,6.5,42,0.00,,---,0.00,VWS V14.01,2013-02-03 06:25:00,
2013-02-03 00:31:00,42.4,21.0,30.24,NNW,338,4.3,6.3,42,0.00,,---,0.00,VWS V14.01,2013-02-03 06:31:00,
2013-02-03 00:36:00,42.4,21.0,30.24,NW,315,7.4,7.4,42,0.00,,---,0.00,VWS V14.01,2013-02-03 06:36:00,
2013-02-03 00:41:00,42.4,21.0,30.24,WNW,292,5.8,5.8,42,0.00,,---,0.00,VWS V14.01,2013-02-03 06:41:00,
2013-02-03 00:46:00,42.3,20.8,30.27,NW,315,3.8,4.3,42,0.00,,---,0.00,VWS V14.01,2013-02-03 06:46:00,
2013-02-03 00:51:00,42.1,20.7,30.27,NW,315,2.7,5.6,42,0.00,,---,0.00,VWS V14.01,2013-02-03 06:51:00,
2013-02-03 00:57:00,41.7,20.3,30.27,NW,315,4.0,4.0,42,0.00,,---,0.00,VWS V14.01,2013-02-03 06:57:00,
2013-02-03 01:02:00,41.7,20.3,30.27,NW,315,4.0,5.8,42,0.00,,---,0.00,VWS V14.01,2013-02-03 07:02:00,
2013-02-03 01:07:00,41.5,20.7,30.27,West,270,4.3,6.5,43,0.00,,---,0.00,VWS V14.01,2013-02-03 07:07:00,
2013-02-03 01:12:00,41.5,20.7,30.27,NW,315,4.3,7.6,43,0.00,,---,0.00,VWS V14.01,2013-02-03 07:12:00,
2013-02-03 01:18:00,41.4,20.6,30.27,WNW,292,2.0,5.4,43,0.00,,---,0.00,VWS V14.01,2013-02-03 07:18:00,
2013-02-03 01:24:00,40.8,20.1,30.27,NNW,338,3.4,5.6,43,0.00,,---,0.00,VWS V14.01,2013-02-03 07:24:00,
2013-02-03 01:29:00,40.8,20.1,30.24,NW,315,2.5,4.0,43,0.00,,---,0.00,VWS V14.01,2013-02-03 07:29:00,
2013-02-03 01:34:00,41.0,20.2,30.24,WNW,292,3.1,5.6,43,0.00,,---,0.00,VWS V14.01,2013-02-03 07:34:00,
2013-02-03 01:39:00,40.6,19.9,30.24,NW,315,2.9,7.8,43,0.00,,---,0.00,VWS V14.01,2013-02-03 07:39:00,
2013-02-03 01:44:00,40.6,19.9,30.27,NW,315,5.8,5.8,43,0.00,,---,0.00,VWS V14.01,2013-02-03 07:44:00,
2013-02-03 01:49:00,40.3,19.6,30.27,NW,315,3.1,4.0,43,0.00,,---,0.00,VWS V14.01,2013-02-03 07:49:00,
2013-02-03 01:54:00,40.5,19.7,30.27,North,0,7.6,7.6,43,0.00,,---,0.00,VWS V14.01,2013-02-03 07:54:00,
2013-02-03 01:59:00,40.8,20.1,30.27,North,0,3.6,4.3,43,0.00,,---,0.00,VWS V14.01,2013-02-03 07:59:00,
2013-02-03 02:04:00,40.8,20.1,30.27,NNW,338,4.0,5.4,43,0.00,,---,0.00,VWS V14.01,2013-02-03 08:04:00,
2013-02-03 02:10:00,40.6,19.9,30.27,NNW,338,5.4,6.0,43,0.00,,---,0.00,VWS V14.01,2013-02-03 08:10:00,
2013-02-03 02:15:00,40.3,19.6,30.27,North,0,3.8,4.3,43,0.00,,---,0.00,VWS V14.01,2013-02-03 08:15:00,
2013-02-03 02:21:00,39.7,19.6,30.27,NNW,338,5.6,8.5,44,0.00,,---,0.00,VWS V14.01,2013-02-03 08:21:00,
2013-02-03 02:26:00,39.6,19.5,30.27,North,0,4.3,4.9,44,0.00,,---,0.00,VWS V14.01,2013-02-03 08:26:00,
2013-02-03 02:32:00,39.4,19.3,30.27,NW,315,4.0,8.5,44,0.00,,---,0.00,VWS V14.01,2013-02-03 08:32:00,
2013-02-03 02:38:00,39.0,19.0,30.27,NNW,338,4.0,4.0,44,0.00,,---,0.00,VWS V14.01,2013-02-03 08:38:00,
2013-02-03 02:43:00,38.7,19.2,30.27,NNW,338,2.9,3.8,45,0.00,,---,0.00,VWS V14.01,2013-02-03 08:43:00,
2013-02-03 02:49:00,38.5,19.0,30.27,North,0,4.9,4.9,45,0.00,,---,0.00,VWS V14.01,2013-02-03 08:49:00,
2013-02-03 02:54:00,38.3,18.8,30.27,NW,315,3.6,5.6,45,0.00,,---,0.00,VWS V14.01,2013-02-03 08:54:00,
2013-02-03 02:59:00,37.9,18.5,30.27,NW,315,2.7,3.1,45,0.00,,---,0.00,VWS V14.01,2013-02-03 08:59:00,
2013-02-03 03:04:00,37.4,18.0,30.27,NW,315,2.9,2.9,45,0.00,,---,0.00,VWS V14.01,2013-02-03 09:04:00,
2013-02-03 03:10:00,36.9,18.0,30.27,NW,315,1.6,2.0,46,0.00,,---,0.00,VWS V14.01,2013-02-03 09:10:00,
2013-02-03 03:16:00,36.5,17.7,30.24,NW,315,1.3,2.7,46,0.00,,---,0.00,VWS V14.01,2013-02-03 09:16:00,
2013-02-03 03:21:00,36.0,17.7,30.24,NW,315,2.0,2.7,47,0.00,,---,0.00,VWS V14.01,2013-02-03 09:21:00,
2013-02-03 03:27:00,35.6,17.9,30.24,NW,315,1.6,2.9,48,0.00,,---,0.00,VWS V14.01,2013-02-03 09:27:00,
2013-02-03 03:32:00,35.2,17.5,30.24,NW,315,1.6,1.6,48,0.00,,---,0.00,VWS V14.01,2013-02-03 09:32:00,
2013-02-03 03:38:00,35.4,18.2,30.24,NW,315,2.7,4.7,49,0.00,,---,0.00,VWS V14.01,2013-02-03 09:38:00,
2013-02-03 03:44:00,35.8,18.5,30.27,NW,315,3.1,3.4,49,0.00,,---,0.00,VWS V14.01,2013-02-03 09:44:00,
2013-02-03 03:49:00,36.0,18.7,30.27,NW,315,3.1,3.8,49,0.00,,---,0.00,VWS V14.01,2013-02-03 09:49:00,
2013-02-03 03:54:00,36.1,19.3,30.27,NNE,22,4.0,4.0,50,0.00,,---,0.00,VWS V14.01,2013-02-03 09:54:00,
2013-02-03 03:59:00,36.3,19.5,30.27,NNE,22,5.8,5.8,50,0.00,,---,0.00,VWS V14.01,2013-02-03 09:59:00,
2013-02-03 04:04:00,36.3,19.5,30.27,NNW,338,2.5,4.3,50,0.00,,---,0.00,VWS V14.01,2013-02-03 10:04:00,
2013-02-03 04:09:00,36.3,19.5,30.27,North,0,3.4,3.8,50,0.00,,---,0.00,VWS V14.01,2013-02-03 10:09:00,
2013-02-03 04:14:00,36.3,19.5,30.24,North,0,2.5,3.8,50,0.00,,---,0.00,VWS V14.01,2013-02-03 10:14:00,
2013-02-03 04:20:00,36.3,19.5,30.24,North,0,3.4,6.0,50,0.00,,---,0.00,VWS V14.01,2013-02-03 10:20:00,
2013-02-03 04:25:00,36.1,19.3,30.24,NNE,22,2.7,3.4,50,0.00,,---,0.00,VWS V14.01,2013-02-03 10:25:00,
2013-02-03 04:30:00,36.1,19.3,30.27,NNW,338,2.0,4.0,50,0.00,,---,0.00,VWS V14.01,2013-02-03 10:30:00,
2013-02-03 04:35:00,36.0,19.1,30.27,North,0,4.3,4.7,50,0.00,,---,0.00,VWS V14.01,2013-02-03 10:35:00,
2013-02-03 04:41:00,35.8,19.0,30.27,North,0,3.8,3.8,50,0.00,,---,0.00,VWS V14.01,2013-02-03 10:41:00,
2013-02-03 04:46:00,35.6,18.8,30.27,NW,315,2.2,3.6,50,0.00,,---,0.00,VWS V14.01,2013-02-03 10:46:00,
2013-02-03 04:51:00,35.2,18.9,30.27,NW,315,3.1,3.6,51,0.00,,---,0.00,VWS V14.01,2013-02-03 10:51:00,
2013-02-03 04:57:00,34.5,18.3,30.27,NNW,338,1.6,2.0,51,0.00,,---,0.00,VWS V14.01,2013-02-03 10:57:00,
2013-02-03 05:02:00,34.2,17.9,30.27,North,0,2.2,3.4,51,0.00,,---,0.00,VWS V14.01,2013-02-03 11:02:00,
2013-02-03 05:07:00,34.0,18.2,30.27,NNW,338,2.2,2.9,52,0.00,,---,0.00,VWS V14.01,2013-02-03 11:07:00,
2013-02-03 05:12:00,33.8,18.0,30.27,NW,315,1.6,1.6,52,0.00,,---,0.00,VWS V14.01,2013-02-03 11:12:00,
2013-02-03 05:17:00,33.4,17.7,30.27,NW,315,2.5,2.5,52,0.00,,---,0.00,VWS V14.01,2013-02-03 11:17:00,
2013-02-03 05:23:00,32.9,17.2,30.27,NW,315,1.6,2.2,52,0.00,,---,0.00,VWS V14.01,2013-02-03 11:23:00,
2013-02-03 05:28:00,32.4,16.7,30.27,NW,315,1.1,1.1,52,0.00,,---,0.00,VWS V14.01,2013-02-03 11:28:00,
2013-02-03 05:34:00,31.5,16.3,30.27,NW,315,0.0,0.0,53,0.00,,---,0.00,VWS V14.01,2013-02-03 11:34:00,
2013-02-03 05:40:00,30.2,15.6,30.27,NW,315,0.0,0.0,54,0.00,,---,0.00,VWS V14.01,2013-02-03 11:40:00,
2013-02-03 05:45:00,29.7,15.1,30.30,NW,315,2.0,2.0,54,0.00,,---,0.00,VWS V14.01,2013-02-03 11:45:00,
2013-02-03 05:51:00,29.7,15.5,30.30,WNW,292,0.0,0.0,55,0.00,,---,0.00,VWS V14.01,2013-02-03 11:51:00,
2013-02-03 05:56:00,29.5,15.3,30.30,WNW,292,0.0,0.0,55,0.00,,---,0.00,VWS V14.01,2013-02-03 11:56:00,
2013-02-03 06:01:00,29.1,15.4,30.30,WNW,292,0.0,0.0,56,0.00,,---,0.00,VWS V14.01,2013-02-03 12:01:00,
2013-02-03 06:06:00,28.6,15.3,30.30,WNW,292,0.0,0.0,57,0.00,,---,0.00,VWS V14.01,2013-02-03 12:06:00,
2013-02-03 06:12:00,28.0,14.8,30.30,WNW,292,0.0,0.0,57,0.00,,---,0.00,VWS V14.01,2013-02-03 12:12:00,
2013-02-03 06:17:00,27.9,15.0,30.30,WNW,292,0.0,0.0,58,0.00,,---,0.00,VWS V14.01,2013-02-03 12:17:00,
2013-02-03 06:23:00,28.0,16.0,30.30,WNW,292,0.0,0.0,60,0.00,,---,0.00,VWS V14.01,2013-02-03 12:23:00,
2013-02-03 06:29:00,27.3,15.7,30.30,WNW,292,0.0,0.0,61,0.00,,---,0.00,VWS V14.01,2013-02-03 12:29:00,
2013-02-03 06:34:00,26.8,15.5,30.30,WNW,292,0.0,0.0,62,0.00,,---,0.00,VWS V14.01,2013-02-03 12:34:00,
2013-02-03 06:40:00,26.2,15.4,30.30,WNW,292,0.0,0.0,63,0.00,,---,0.00,VWS V14.01,2013-02-03 12:40:00,
2013-02-03 06:45:00,25.9,15.0,30.30,WNW,292,0.0,0.0,63,0.00,,---,0.00,VWS V14.01,2013-02-03 12:45:00,
2013-02-03 06:50:00,25.7,15.2,30.30,WNW,292,0.0,0.0,64,0.00,,---,0.00,VWS V14.01,2013-02-03 12:50:00,
2013-02-03 06:55:00,25.5,15.1,30.30,WNW,292,0.0,0.0,64,0.00,,---,0.00,VWS V14.01,2013-02-03 12:55:00,
2013-02-03 07:01:00,25.3,14.9,30.30,WNW,292,0.0,0.0,64,0.00,,---,0.00,VWS V14.01,2013-02-03 13:01:00,
2013-02-03 07:07:00,25.7,15.6,30.30,WNW,292,0.0,0.0,65,0.00,,---,0.00,VWS V14.01,2013-02-03 13:07:00,
2013-02-03 07:12:00,25.3,15.2,30.30,WNW,292,0.0,0.0,65,0.00,,---,0.00,VWS V14.01,2013-02-03 13:12:00,
2013-02-03 07:18:00,25.0,15.2,30.30,WNW,292,0.0,0.0,66,0.00,,---,0.00,VWS V14.01,2013-02-03 13:18:00,
2013-02-03 07:23:00,24.6,14.9,30.30,WNW,292,0.0,0.0,66,0.00,,---,0.00,VWS V14.01,2013-02-03 13:23:00,
2013-02-03 07:29:00,24.4,16.1,30.30,WNW,292,0.0,0.0,70,0.00,,---,0.00,VWS V14.01,2013-02-03 13:29:00,
2013-02-03 07:35:00,24.3,15.9,30.30,WNW,292,0.0,0.0,70,0.00,,---,0.00,VWS V14.01,2013-02-03 13:35:00,
2013-02-03 07:40:00,24.4,15.4,30.30,WNW,292,0.0,0.0,68,0.00,,---,0.00,VWS V14.01,2013-02-03 13:40:00,
2013-02-03 07:45:00,25.2,15.8,30.33,WNW,292,1.1,1.6,67,0.00,,---,0.00,VWS V14.01,2013-02-03 13:45:00,
2013-02-03 07:50:00,28.0,19.5,30.33,WNW,292,0.0,0.0,70,0.00,,---,0.00,VWS V14.01,2013-02-03 13:50:00,
2013-02-03 07:55:00,29.7,20.8,30.33,WNW,292,0.0,0.0,69,0.00,,---,0.00,VWS V14.01,2013-02-03 13:55:00,
2013-02-03 08:00:00,31.6,22.0,30.33,WNW,292,0.0,0.0,67,0.00,,---,0.00,VWS V14.01,2013-02-03 14:00:00,
2013-02-03 08:05:00,33.1,22.6,30.33,WNW,292,0.0,0.0,65,0.00,,---,0.00,VWS V14.01,2013-02-03 14:05:00,
2013-02-03 08:11:00,34.5,23.6,30.33,WNW,292,0.0,0.0,64,0.00,,---,0.00,VWS V14.01,2013-02-03 14:11:00,
2013-02-03 08:16:00,36.0,24.6,30.30,WNW,292,0.0,0.0,63,0.00,,---,0.00,VWS V14.01,2013-02-03 14:16:00,
2013-02-03 08:21:00,37.4,25.2,30.30,WNW,292,0.0,0.0,61,0.00,,---,0.00,VWS V14.01,2013-02-03 14:21:00,
2013-02-03 08:26:00,38.1,25.9,30.30,WNW,292,0.0,0.0,61,0.00,,---,0.00,VWS V14.01,2013-02-03 14:26:00,
2013-02-03 08:32:00,39.2,25.3,30.30,South,180,0.0,0.9,57,0.00,,---,0.00,VWS V14.01,2013-02-03 14:32:00,
2013-02-03 08:37:00,41.0,25.6,30.30,South,180,0.0,0.0,54,0.00,,---,0.00,VWS V14.01,2013-02-03 14:37:00,
2013-02-03 08:43:00,41.7,25.4,30.30,SSE,158,0.0,1.3,52,0.00,,---,0.00,VWS V14.01,2013-02-03 14:43:00,
2013-02-03 08:49:00,42.4,25.6,30.30,SSE,158,0.9,2.0,51,0.00,,---,0.00,VWS V14.01,2013-02-03 14:49:00,
2013-02-03 08:54:00,43.3,26.0,30.30,SSE,158,0.0,0.0,50,0.00,,---,0.00,VWS V14.01,2013-02-03 14:54:00,
2013-02-03 09:00:00,43.5,25.6,30.30,ESE,112,2.5,2.5,49,0.00,,---,0.00,VWS V14.01,2013-02-03 15:00:00,
2013-02-03 09:06:00,43.5,25.6,30.30,East,90,3.1,3.1,49,0.00,,---,0.00,VWS V14.01,2013-02-03 15:06:00,
2013-02-03 09:11:00,43.7,25.3,30.30,SE,135,2.9,2.9,48,0.00,,---,0.00,VWS V14.01,2013-02-03 15:11:00,
2013-02-03 09:17:00,43.5,25.1,30.30,ESE,112,3.4,4.3,48,0.00,,---,0.00,VWS V14.01,2013-02-03 15:17:00,
2013-02-03 09:22:00,43.9,25.0,30.30,East,90,3.1,4.0,47,0.00,,---,0.00,VWS V14.01,2013-02-03 15:22:00,
2013-02-03 09:28:00,44.1,25.1,30.30,East,90,2.5,4.0,47,0.00,,---,0.00,VWS V14.01,2013-02-03 15:28:00,
2013-02-03 09:33:00,44.2,24.8,30.30,SSE,158,7.6,8.5,46,0.00,,---,0.00,VWS V14.01,2013-02-03 15:33:00,
2013-02-03 09:38:00,44.1,24.6,30.30,SE,135,4.3,7.6,46,0.00,,---,0.00,VWS V14.01,2013-02-03 15:38:00,
2013-02-03 09:43:00,44.8,24.8,30.27,SE,135,2.9,3.4,45,0.00,,---,0.00,VWS V14.01,2013-02-03 15:43:00,
2013-02-03 09:49:00,45.0,24.9,30.27,SSE,158,4.7,6.7,45,0.00,,---,0.00,VWS V14.01,2013-02-03 15:49:00,
2013-02-03 09:54:00,45.3,24.7,30.27,SE,135,3.4,4.0,44,0.00,,---,0.00,VWS V14.01,2013-02-03 15:54:00,
2013-02-03 10:00:00,46.2,25.0,30.27,East,90,5.4,6.3,43,0.00,,---,0.00,VWS V14.01,2013-02-03 16:00:00,
2013-02-03 10:06:00,46.8,24.9,30.27,East,90,4.9,4.9,42,0.00,,---,0.00,VWS V14.01,2013-02-03 16:06:00,
2013-02-03 10:11:00,47.1,25.2,30.27,SSE,158,5.8,7.6,42,0.00,,---,0.00,VWS V14.01,2013-02-03 16:11:00,
2013-02-03 10:17:00,47.7,25.1,30.27,East,90,6.3,6.3,41,0.00,,---,0.00,VWS V14.01,2013-02-03 16:17:00,
2013-02-03 10:22:00,47.8,25.3,30.27,SE,135,8.7,8.7,41,0.00,,---,0.00,VWS V14.01,2013-02-03 16:22:00,
2013-02-03 10:28:00,48.4,25.2,30.24,East,90,5.4,5.4,40,0.00,,---,0.00,VWS V14.01,2013-02-03 16:28:00,
2013-02-03 10:33:00,48.6,24.7,30.24,South,180,5.4,5.4,39,0.00,,---,0.00,VWS V14.01,2013-02-03 16:33:00,
2013-02-03 10:38:00,48.6,24.1,30.24,SSE,158,2.9,7.8,38,0.00,,---,0.00,VWS V14.01,2013-02-03 16:38:00,
2013-02-03 10:44:00,49.8,25.2,30.27,ESE,112,2.9,3.8,38,0.00,,---,0.00,VWS V14.01,2013-02-03 16:44:00,
2013-02-03 10:49:00,50.0,24.8,30.27,SE,135,5.6,5.6,37,0.00,,---,0.00,VWS V14.01,2013-02-03 16:49:00,
2013-02-03 10:55:00,50.2,24.3,30.27,ESE,112,5.6,8.1,36,0.00,,---,0.00,VWS V14.01,2013-02-03 16:55:00,
2013-02-03 11:00:00,50.9,25.6,30.27,SE,135,5.6,5.6,37,0.00,,---,0.00,VWS V14.01,2013-02-03 17:00:00,
2013-02-03 11:05:00,51.4,25.4,30.27,SE,135,8.1,8.1,36,0.00,,---,0.00,VWS V14.01,2013-02-03 17:05:00,
2013-02-03 11:10:00,51.3,25.2,30.27,East,90,6.0,6.0,36,0.00,,---,0.00,VWS V14.01,2013-02-03 17:10:00,
2013-02-03 11:15:00,51.6,25.6,30.27,SE,135,5.8,8.1,36,0.00,,---,0.00,VWS V14.01,2013-02-03 17:15:00,
2013-02-03 11:20:00,51.1,25.1,30.27,SE,135,4.0,6.5,36,0.00,,---,0.00,VWS V14.01,2013-02-03 17:20:00,
2013-02-03 11:25:00,51.6,25.6,30.27,SSE,158,3.4,5.4,36,0.00,,---,0.00,VWS V14.01,2013-02-03 17:25:00,
2013-02-03 11:31:00,51.8,25.7,30.24,SSW,202,6.3,6.9,36,0.00,,---,0.00,VWS V14.01,2013-02-03 17:31:00,
2013-02-03 11:37:00,52.0,25.9,30.24,SW,225,3.4,5.4,36,0.00,,---,0.00,VWS V14.01,2013-02-03 17:37:00,
2013-02-03 11:42:00,52.0,24.5,30.24,SE,135,8.7,9.8,34,0.00,,---,0.00,VWS V14.01,2013-02-03 17:42:00,
2013-02-03 11:48:00,52.5,25.0,30.24,SE,135,3.6,5.6,34,0.00,,---,0.00,VWS V14.01,2013-02-03 17:48:00,
2013-02-03 11:53:00,52.9,24.6,30.24,ESE,112,3.6,7.6,33,0.00,,---,0.00,VWS V14.01,2013-02-03 17:53:00,
2013-02-03 11:59:00,52.3,23.4,30.24,East,90,10.5,11.0,32,0.00,,---,0.00,VWS V14.01,2013-02-03 17:59:00,
2013-02-03 12:04:00,52.3,23.4,30.24,SSE,158,2.5,7.4,32,0.00,,---,0.00,VWS V14.01,2013-02-03 18:04:00,
2013-02-03 12:09:00,53.1,23.2,30.24,SSE,158,6.3,7.6,31,0.00,,---,0.00,VWS V14.01,2013-02-03 18:09:00,
2013-02-03 12:15:00,53.2,22.6,30.21,SSE,158,12.3,12.3,30,0.00,,---,0.00,VWS V14.01,2013-02-03 18:15:00,
2013-02-03 12:20:00,53.1,22.5,30.21,SSE,158,6.5,8.5,30,0.00,,---,0.00,VWS V14.01,2013-02-03 18:20:00,
2013-02-03 12:26:00,53.8,22.3,30.21,ESE,112,8.1,11.0,29,0.00,,---,0.00,VWS V14.01,2013-02-03 18:26:00,
2013-02-03 12:31:00,53.8,22.3,30.21,South,180,4.7,11.0,29,0.00,,---,0.00,VWS V14.01,2013-02-03 18:31:00,
2013-02-03 12:37:00,54.3,21.9,30.21,SSE,158,5.6,5.6,28,0.00,,---,0.00,VWS V14.01,2013-02-03 18:37:00,
2013-02-03 12:42:00,54.5,22.1,30.21,SW,225,5.8,5.8,28,0.00,,---,0.00,VWS V14.01,2013-02-03 18:42:00,
2013-02-03 12:48:00,54.9,22.4,30.21,South,180,5.6,8.7,28,0.00,,---,0.00,VWS V14.01,2013-02-03 18:48:00,
2013-02-03 12:53:00,55.0,21.7,30.21,SSE,158,7.4,7.4,27,0.00,,---,0.00,VWS V14.01,2013-02-03 18:53:00,
2013-02-03 12:58:00,54.3,21.1,30.21,SSE,158,8.5,8.5,27,0.00,,---,0.00,VWS V14.01,2013-02-03 18:58:00,
2013-02-03 13:03:00,55.6,23.0,30.21,SE,135,4.9,6.0,28,0.00,,---,0.00,VWS V14.01,2013-02-03 19:03:00,
2013-02-03 13:09:00,55.9,22.5,30.21,SSW,202,7.6,7.6,27,0.00,,---,0.00,VWS V14.01,2013-02-03 19:09:00,
2013-02-03 13:14:00,55.8,22.3,30.18,SE,135,7.4,7.4,27,0.00,,---,0.00,VWS V14.01,2013-02-03 19:14:00,
2013-02-03 13:19:00,56.3,22.8,30.18,South,180,4.3,6.3,27,0.00,,---,0.00,VWS V14.01,2013-02-03 19:19:00,
2013-02-03 13:24:00,56.7,23.1,30.18,SSW,202,9.8,9.8,27,0.00,,---,0.00,VWS V14.01,2013-02-03 19:24:00,
2013-02-03 13:30:00,56.5,22.9,30.15,SSW,202,3.4,9.8,27,0.00,,---,0.00,VWS V14.01,2013-02-03 19:30:00,
2013-02-03 13:35:00,56.8,23.2,30.15,South,180,6.0,10.7,27,0.00,,---,0.00,VWS V14.01,2013-02-03 19:35:00,
2013-02-03 13:40:00,56.7,23.1,30.15,South,180,15.7,15.7,27,0.00,,---,0.00,VWS V14.01,2013-02-03 19:40:00,
2013-02-03 13:46:00,56.8,23.2,30.15,SSW,202,6.0,8.1,27,0.00,,---,0.00,VWS V14.01,2013-02-03 19:46:00,
2013-02-03 13:51:00,56.8,22.3,30.15,South,180,8.1,8.7,26,0.00,,---,0.00,VWS V14.01,2013-02-03 19:51:00,
2013-02-03 13:56:00,57.0,22.5,30.15,SSW,202,8.5,8.5,26,0.00,,---,0.00,VWS V14.01,2013-02-03 19:56:00,
2013-02-03 14:01:00,57.6,23.0,30.15,South,180,10.3,10.3,26,0.00,,---,0.00,VWS V14.01,2013-02-03 20:01:00,
2013-02-03 14:06:00,57.2,21.7,30.15,SSE,158,6.3,7.8,25,0.00,,---,0.00,VWS V14.01,2013-02-03 20:06:00,
2013-02-03 14:12:00,57.6,22.0,30.15,WSW,248,10.1,10.1,25,0.00,,---,0.00,VWS V14.01,2013-02-03 20:12:00,
2013-02-03 14:17:00,57.4,21.9,30.15,SSE,158,9.6,10.3,25,0.00,,---,0.00,VWS V14.01,2013-02-03 20:17:00,
2013-02-03 14:22:00,57.2,21.7,30.15,SSW,202,4.3,8.1,25,0.00,,---,0.00,VWS V14.01,2013-02-03 20:22:00,
2013-02-03 14:27:00,57.4,21.9,30.09,SSW,202,4.7,9.4,25,0.00,,---,0.00,VWS V14.01,2013-02-03 20:27:00,
2013-02-03 14:33:00,57.9,22.3,30.09,South,180,8.1,9.8,25,0.00,,---,0.00,VWS V14.01,2013-02-03 20:33:00,
2013-02-03 14:39:00,58.3,22.6,30.09,South,180,6.5,6.5,25,0.00,,---,0.00,VWS V14.01,2013-02-03 20:39:00,
2013-02-03 14:44:00,58.3,21.7,30.09,South,180,3.6,6.9,24,0.00,,---,0.00,VWS V14.01,2013-02-03 20:44:00,
2013-02-03 14:50:00,58.6,22.0,30.09,South,180,10.1,10.1,24,0.00,,---,0.00,VWS V14.01,2013-02-03 20:50:00,
2013-02-03 14:55:00,58.3,16.2,30.09,South,180,7.4,10.3,19,0.00,,---,0.00,VWS V14.01,2013-02-03 20:55:00,
2013-02-03 15:01:00,58.5,13.8,30.06,SSE,158,13.0,13.0,17,0.00,,---,0.00,VWS V14.01,2013-02-03 21:01:00,
2013-02-03 15:06:00,58.5,13.8,30.06,SSE,158,4.3,10.7,17,0.00,,---,0.00,VWS V14.01,2013-02-03 21:06:00,
2013-02-03 15:11:00,58.3,13.7,30.06,SSW,202,7.6,8.5,17,0.00,,---,0.00,VWS V14.01,2013-02-03 21:11:00,
2013-02-03 15:17:00,58.1,16.1,30.09,South,180,6.7,11.0,19,0.00,,---,0.00,VWS V14.01,2013-02-03 21:17:00,
2013-02-03 15:22:00,58.3,16.2,30.09,South,180,7.4,8.7,19,0.00,,---,0.00,VWS V14.01,2013-02-03 21:22:00,
2013-02-03 15:27:00,58.3,16.2,30.09,South,180,12.8,12.8,19,0.00,,---,0.00,VWS V14.01,2013-02-03 21:27:00,
2013-02-03 15:32:00,58.1,16.1,30.09,South,180,6.5,10.7,19,0.00,,---,0.00,VWS V14.01,2013-02-03 21:32:00,
2013-02-03 15:37:00,58.1,16.1,30.09,SSW,202,9.8,14.1,19,0.00,,---,0.00,VWS V14.01,2013-02-03 21:37:00,
2013-02-03 15:43:00,58.1,19.5,30.09,SSW,202,10.7,10.7,22,0.00,,---,0.00,VWS V14.01,2013-02-03 21:43:00,
2013-02-03 15:48:00,58.5,19.8,30.09,South,180,6.5,6.5,22,0.00,,---,0.00,VWS V14.01,2013-02-03 21:48:00,
2013-02-03 15:53:00,58.1,19.5,30.09,SSW,202,3.4,6.5,22,0.00,,---,0.00,VWS V14.01,2013-02-03 21:53:00,
2013-02-03 15:58:00,58.3,19.6,30.09,ESE,112,11.0,11.0,22,0.00,,---,0.00,VWS V14.01,2013-02-03 21:58:00,
2013-02-03 16:03:00,57.9,15.9,30.09,SW,225,11.9,13.2,19,0.00,,---,0.00,VWS V14.01,2013-02-03 22:03:00,
2013-02-03 16:09:00,57.6,15.6,30.09,South,180,10.3,10.3,19,0.00,,---,0.00,VWS V14.01,2013-02-03 22:09:00,
2013-02-03 16:14:00,57.7,19.2,30.06,South,180,8.7,10.7,22,0.00,,---,0.00,VWS V14.01,2013-02-03 22:14:00,
2013-02-03 16:19:00,58.1,19.5,30.06,SSW,202,3.1,6.3,22,0.00,,---,0.00,VWS V14.01,2013-02-03 22:19:00,
2013-02-03 16:25:00,57.6,19.0,30.06,SSW,202,9.6,10.5,22,0.00,,---,0.00,VWS V14.01,2013-02-03 22:25:00,
2013-02-03 16:30:00,57.0,21.6,30.03,SSW,202,3.8,10.1,25,0.00,,---,0.00,VWS V14.01,2013-02-03 22:30:00,
2013-02-03 16:35:00,56.8,21.4,30.03,South,180,6.3,13.6,25,0.00,,---,0.00,VWS V14.01,2013-02-03 22:35:00,
2013-02-03 16:40:00,56.8,21.4,30.03,South,180,5.8,10.7,25,0.00,,---,0.00,VWS V14.01,2013-02-03 22:40:00,
2013-02-03 16:46:00,56.7,21.3,30.03,South,180,9.8,9.8,25,0.00,,---,0.00,VWS V14.01,2013-02-03 22:46:00,
2013-02-03 16:51:00,56.7,21.3,30.03,South,180,8.5,8.5,25,0.00,,---,0.00,VWS V14.01,2013-02-03 22:51:00,
2013-02-03 16:56:00,56.7,22.2,30.03,South,180,3.6,8.1,26,0.00,,---,0.00,VWS V14.01,2013-02-03 22:56:00,
2013-02-03 17:01:00,56.5,22.0,30.03,SSW,202,6.0,6.7,26,0.00,,---,0.00,VWS V14.01,2013-02-03 23:01:00,
2013-02-03 17:07:00,56.3,21.9,30.03,SSW,202,4.3,7.8,26,0.00,,---,0.00,VWS V14.01,2013-02-03 23:07:00,
2013-02-03 17:12:00,56.1,21.7,30.03,South,180,6.0,8.1,26,0.00,,---,0.00,VWS V14.01,2013-02-03 23:12:00,
2013-02-03 17:18:00,55.9,22.5,30.03,South,180,5.4,5.4,27,0.00,,---,0.00,VWS V14.01,2013-02-03 23:18:00,
2013-02-03 17:24:00,55.6,21.3,30.03,SSW,202,5.4,7.8,26,0.00,,---,0.00,VWS V14.01,2013-02-03 23:24:00,
2013-02-03 17:29:00,55.4,21.1,30.03,SSW,202,4.3,9.0,26,0.00,,---,0.00,VWS V14.01,2013-02-03 23:29:00,
2013-02-03 17:35:00,55.0,21.7,30.03,SSW,202,8.1,8.1,27,0.00,,---,0.00,VWS V14.01,2013-02-03 23:35:00,
2013-02-03 17:40:00,54.5,21.2,30.03,SSW,202,6.3,8.7,27,0.00,,---,0.00,VWS V14.01,2013-02-03 23:40:00,
2013-02-03 17:45:00,54.3,21.9,30.00,South,180,2.7,5.8,28,0.00,,---,0.00,VWS V14.01,2013-02-03 23:45:00,
2013-02-03 17:50:00,54.0,21.6,30.00,SSE,158,3.6,7.4,28,0.00,,---,0.00,VWS V14.01,2013-02-03 23:50:00,
2013-02-03 17:55:00,53.6,21.3,30.00,SSW,202,4.0,4.0,28,0.00,,---,0.00,VWS V14.01,2013-02-03 23:55:00,
2013-02-03 18:00:00,53.4,22.0,30.00,SSE,158,7.2,7.2,29,0.00,,---,0.00,VWS V14.01,2013-02-04 00:00:00,
2013-02-03 18:06:00,53.1,21.7,30.00,South,180,2.5,5.8,29,0.00,,---,0.00,VWS V14.01,2013-02-04 00:06:00,
2013-02-03 18:11:00,53.1,21.7,30.00,South,180,4.7,5.8,29,0.00,,---,0.00,VWS V14.01,2013-02-04 00:11:00,
2013-02-03 18:17:00,52.9,21.5,30.00,South,180,3.8,3.8,29,0.00,,---,0.00,VWS V14.01,2013-02-04 00:17:00,
2013-02-03 18:22:00,52.9,21.5,30.00,SSW,202,3.4,7.4,29,0.00,,---,0.00,VWS V14.01,2013-02-04 00:22:00,
2013-02-03 18:27:00,52.3,21.8,30.00,South,180,1.1,4.0,30,0.00,,---,0.00,VWS V14.01,2013-02-04 00:27:00,
2013-02-03 18:32:00,52.2,22.5,30.00,South,180,6.9,6.9,31,0.00,,---,0.00,VWS V14.01,2013-02-04 00:32:00,
2013-02-03 18:38:00,51.8,22.1,30.00,South,180,11.2,11.2,31,0.00,,---,0.00,VWS V14.01,2013-02-04 00:38:00,
2013-02-03 18:43:00,51.6,22.7,30.00,South,180,4.0,8.7,32,0.00,,---,0.00,VWS V14.01,2013-02-04 00:43:00,
2013-02-03 18:49:00,51.4,23.3,30.00,SSE,158,7.6,9.0,33,0.00,,---,0.00,VWS V14.01,2013-02-04 00:49:00,
2013-02-03 18:55:00,51.3,23.2,30.00,SSE,158,2.7,5.4,33,0.00,,---,0.00,VWS V14.01,2013-02-04 00:55:00,
2013-02-03 19:00:00,50.9,23.5,29.97,SSW,202,3.8,9.8,34,0.00,,---,0.00,VWS V14.01,2013-02-04 01:00:00,
2013-02-03 19:06:00,50.9,23.5,29.97,South,180,5.8,5.8,34,0.00,,---,0.00,VWS V14.01,2013-02-04 01:06:00,
2013-02-03 19:11:00,50.7,24.1,29.97,South,180,12.8,12.8,35,0.00,,---,0.00,VWS V14.01,2013-02-04 01:11:00,
2013-02-03 19:16:00,50.9,24.2,29.97,SSW,202,4.7,7.4,35,0.00,,---,0.00,VWS V14.01,2013-02-04 01:16:00,
2013-02-03 19:22:00,50.7,24.8,29.97,SSW,202,5.6,7.8,36,0.00,,---,0.00,VWS V14.01,2013-02-04 01:22:00,
2013-02-03 19:27:00,50.7,24.8,29.97,South,180,5.6,5.6,36,0.00,,---,0.00,VWS V14.01,2013-02-04 01:27:00,
2013-02-03 19:32:00,50.5,24.6,29.97,SSW,202,4.0,8.7,36,0.00,,---,0.00,VWS V14.01,2013-02-04 01:32:00,
2013-02-03 19:37:00,50.5,24.6,29.97,South,180,2.5,8.1,36,0.00,,---,0.00,VWS V14.01,2013-02-04 01:37:00,
2013-02-03 19:42:00,50.4,24.4,29.94,SSW,202,0.9,6.3,36,0.00,,---,0.00,VWS V14.01,2013-02-04 01:42:00,
2013-02-03 19:48:00,50.2,24.3,29.94,SE,135,2.7,7.4,36,0.00,,---,0.00,VWS V14.01,2013-02-04 01:48:00,
2013-02-03 19:53:00,50.2,24.3,29.94,South,180,3.8,10.1,36,0.00,,---,0.00,VWS V14.01,2013-02-04 01:53:00,
2013-02-03 19:58:00,50.0,24.1,29.94,SSW,202,7.8,7.8,36,0.00,,---,0.00,VWS V14.01,2013-02-04 01:58:00,
2013-02-03 20:03:00,50.0,24.8,29.94,SSE,158,5.8,8.7,37,0.00,,---,0.00,VWS V14.01,2013-02-04 02:03:00,
2013-02-03 20:09:00,50.0,24.8,29.94,South,180,8.5,8.5,37,0.00,,---,0.00,VWS V14.01,2013-02-04 02:09:00,
2013-02-03 20:14:00,50.0,24.8,29.97,SSE,158,6.5,8.7,37,0.00,,---,0.00,VWS V14.01,2013-02-04 02:14:00,
2013-02-03 20:19:00,49.8,24.6,29.97,South,180,3.8,10.7,37,0.00,,---,0.00,VWS V14.01,2013-02-04 02:19:00,
2013-02-03 20:24:00,49.6,24.5,29.97,SSW,202,5.8,5.8,37,0.00,,---,0.00,VWS V14.01,2013-02-04 02:24:00,
2013-02-03 20:30:00,49.6,24.5,30.00,SSW,202,5.4,6.5,37,0.00,,---,0.00,VWS V14.01,2013-02-04 02:30:00,
2013-02-03 20:35:00,49.6,25.1,30.00,SSE,158,7.6,10.5,38,0.00,,---,0.00,VWS V14.01,2013-02-04 02:35:00,
2013-02-03 20:40:00,49.6,25.1,30.00,SW,225,2.0,5.8,38,0.00,,---,0.00,VWS V14.01,2013-02-04 02:40:00,
2013-02-03 20:46:00,49.6,25.1,29.97,SSW,202,3.8,7.2,38,0.00,,---,0.00,VWS V14.01,2013-02-04 02:46:00,
2013-02-03 20:51:00,49.5,24.9,29.97,SSW,202,4.9,7.6,38,0.00,,---,0.00,VWS V14.01,2013-02-04 02:51:00,
2013-02-03 20:57:00,49.6,25.1,29.97,South,180,7.8,7.8,38,0.00,,---,0.00,VWS V14.01,2013-02-04 02:57:00,
2013-02-03 21:02:00,49.8,25.2,29.97,SSW,202,5.4,9.6,38,0.00,,---,0.00,VWS V14.01,2013-02-04 03:02:00,
2013-02-03 21:08:00,50.0,25.4,29.97,South,180,6.0,6.0,38,0.00,,---,0.00,VWS V14.01,2013-02-04 03:08:00,
2013-02-03 21:14:00,50.2,25.6,29.97,SSW,202,6.3,12.3,38,0.00,,---,0.00,VWS V14.01,2013-02-04 03:14:00,
2013-02-03 21:19:00,50.2,25.6,29.97,South,180,7.4,7.4,38,0.00,,---,0.00,VWS V14.01,2013-02-04 03:19:00,
2013-02-03 21:24:00,50.2,25.6,29.97,South,180,6.5,6.5,38,0.00,,---,0.00,VWS V14.01,2013-02-04 03:24:00,
2013-02-03 21:29:00,50.2,25.6,29.94,South,180,7.4,12.3,38,0.00,,---,0.00,VWS V14.01,2013-02-04 03:29:00,
2013-02-03 21:34:00,50.0,25.4,29.94,SSE,158,4.9,8.7,38,0.00,,---,0.00,VWS V14.01,2013-02-04 03:34:00,
2013-02-03 21:39:00,50.0,25.4,29.94,WSW,248,5.4,8.7,38,0.00,,---,0.00,VWS V14.01,2013-02-04 03:39:00,
2013-02-03 21:44:00,49.8,25.2,29.94,South,180,8.7,8.7,38,0.00,,---,0.00,VWS V14.01,2013-02-04 03:44:00,
2013-02-03 21:50:00,49.6,25.1,29.94,South,180,4.9,7.8,38,0.00,,---,0.00,VWS V14.01,2013-02-04 03:50:00,
2013-02-03 21:55:00,49.6,25.7,29.94,South,180,8.1,8.1,39,0.00,,---,0.00,VWS V14.01,2013-02-04 03:55:00,
2013-02-03 22:01:00,49.6,25.7,29.91,SSW,202,7.6,9.4,39,0.00,,---,0.00,VWS V14.01,2013-02-04 04:01:00,
2013-02-03 22:06:00,49.6,25.7,29.91,SSW,202,5.8,6.0,39,0.00,,---,0.00,VWS V14.01,2013-02-04 04:06:00,
2013-02-03 22:11:00,49.6,25.7,29.91,South,180,4.9,7.4,39,0.00,,---,0.00,VWS V14.01,2013-02-04 04:11:00,
2013-02-03 22:17:00,49.5,25.5,29.91,SSE,158,7.6,7.6,39,0.00,,---,0.00,VWS V14.01,2013-02-04 04:17:00,
2013-02-03 22:22:00,49.5,25.5,29.91,South,180,3.1,7.4,39,0.00,,---,0.00,VWS V14.01,2013-02-04 04:22:00,
2013-02-03 22:27:00,49.5,25.5,29.88,SSE,158,6.5,6.5,39,0.00,,---,0.00,VWS V14.01,2013-02-04 04:27:00,
2013-02-03 22:32:00,49.5,25.5,29.88,SSW,202,3.1,9.6,39,0.00,,---,0.00,VWS V14.01,2013-02-04 04:32:00,
2013-02-03 22:37:00,49.6,25.7,29.88,South,180,5.6,7.2,39,0.00,,---,0.00,VWS V14.01,2013-02-04 04:37:00,
2013-02-03 22:42:00,49.6,25.7,29.91,South,180,7.8,7.8,39,0.00,,---,0.00,VWS V14.01,2013-02-04 04:42:00,
2013-02-03 22:47:00,49.8,25.9,29.91,South,180,9.4,9.4,39,0.00,,---,0.00,VWS V14.01,2013-02-04 04:47:00,
2013-02-03 22:53:00,50.0,26.0,29.91,SSW,202,7.6,10.1,39,0.00,,---,0.00,VWS V14.01,2013-02-04 04:53:00,
2013-02-03 22:58:00,50.0,26.0,29.91,SSW,202,6.7,7.2,39,0.00,,---,0.00,VWS V14.01,2013-02-04 04:58:00,
2013-02-03 23:04:00,50.0,26.0,29.91,South,180,7.8,7.8,39,0.00,,---,0.00,VWS V14.01,2013-02-04 05:04:00,
2013-02-03 23:05:00,50.2,26.2,29.91,SSW,202,6.0,7.8,39,0.00,,---,0.00,VWS V14.01,2013-02-04 05:05:00,
2013-02-03 23:08:00,50.2,26.2,29.91,SSW,202,5.6,6.3,39,0.00,,---,0.00,VWS V14.01,2013-02-04 05:08:00,
2013-02-03 23:09:00,50.2,26.2,29.91,SSW,202,3.4,7.6,39,0.00,,---,0.00,VWS V14.01,2013-02-04 05:09:00,
2013-02-03 23:14:00,50.2,26.2,29.91,SSW,202,7.6,7.6,39,0.00,,---,0.00,VWS V14.01,2013-02-04 05:14:00,
2013-02-03 23:19:00,50.4,26.4,29.91,SSW,202,4.9,7.6,39,0.00,,---,0.00,VWS V14.01,2013-02-04 05:19:00,
2013-02-03 23:25:00,50.4,26.4,29.91,SSW,202,3.4,6.5,39,0.00,,---,0.00,VWS V14.01,2013-02-04 05:25:00,
2013-02-03 23:30:00,50.4,26.4,29.91,SSW,202,5.6,7.4,39,0.00,,---,0.00,VWS V14.01,2013-02-04 05:30:00,
2013-02-03 23:35:00,50.4,26.4,29.91,South,180,6.5,6.5,39,0.00,,---,0.00,VWS V14.01,2013-02-04 05:35:00,
2013-02-03 23:40:00,50.2,26.2,29.91,South,180,6.5,6.5,39,0.00,,---,0.00,VWS V14.01,2013-02-04 05:40:00,
2013-02-03 23:46:00,50.2,26.2,29.91,SSW,202,7.6,7.6,39,0.00,,---,0.00,VWS V14.01,2013-02-04 05:46:00,
2013-02-03 23:51:00,50.2,26.2,29.91,South,180,7.4,7.4,39,0.00,,---,0.00,VWS V14.01,2013-02-04 05:51:00,
2013-02-03 23:56:00,50.2,26.2,29.91,SSE,158,4.0,7.6,39,0.00,,---,0.00,VWS V14.01,2013-02-04 05:56:00,